Time;durP1;ratioP1;P1;durP2;ratioP2;P2;SDS_P1;SDS_P2;PMS_P1;PMS_P2;Temp;Humidity;BMP_temperature;BMP_pressure;BME280_temperature;BME280_humidity;BME280_pressure;Samples;Min_cycle;Max_cycle;Signal;HPM_P1;HPM_P2
2023/06/01 00:00:13;;;;;;;13.65;6.05;;;;;;;;;;4942056;28;20144;-92
2023/06/01 00:02:58;;;;;;;14.32;5.18;;;;;;;;;;4942279;29;20094;-93
2023/06/01 00:05:43;;;;;;;17.13;5.22;;;;;;;;;;4941894;28;20050;-93
2023/06/01 00:08:27;;;;;;;18.35;5.38;;;;;;;;;;4956328;28;20042;-94
2023/06/01 00:11:12;;;;;;;11.45;4.93;;;;;;;;;;4956349;28;20046;-93
2023/06/01 00:13:57;;;;;;;12.07;5.05;;;;;;;;;;4954141;28;20101;-92
2023/06/01 00:16:42;;;;;;;14.40;4.93;;;;;;;;;;4956146;28;20050;-93
2023/06/01 00:19:27;;;;;;;13.68;5.82;;;;;;;;;;4956037;28;20400;-93
2023/06/01 00:22:11;;;;;;;17.75;5.35;;;;;;;;;;4955738;28;20436;-92
2023/06/01 00:24:56;;;;;;;11.80;5.30;;;;;;;;;;4941133;29;20042;-93
2023/06/01 00:27:41;;;;;;;12.32;5.15;;;;;;;;;;4955840;28;20042;-93
2023/06/01 00:30:26;;;;;;;11.65;5.60;;;;;;;;;;4956237;28;20039;-94
2023/06/01 00:33:11;;;;;;;11.38;4.97;;;;;;;;;;4943191;29;20109;-93
2023/06/01 00:35:55;;;;;;;17.20;5.20;;;;;;;;;;4955574;28;20101;-93
2023/06/01 00:38:39;;;;;;;14.80;5.10;;;;;;;;;;4928504;29;20046;-93
2023/06/01 00:41:24;;;;;;;19.10;6.32;;;;;;;;;;4956171;29;20126;-94
2023/06/01 00:44:09;;;;;;;12.48;5.35;;;;;;;;;;4955708;29;20097;-94
2023/06/01 00:46:54;;;;;;;18.33;5.35;;;;;;;;;;4929276;29;20050;-93
2023/06/01 00:49:38;;;;;;;13.93;5.47;;;;;;;;;;4941369;28;20050;-93
2023/06/01 00:52:23;;;;;;;14.52;5.75;;;;;;;;;;4941773;29;20400;-93
2023/06/01 00:55:09;;;;;;;14.15;5.55;;;11.40;99.90;;;;;;4955465;28;20074;-93
2023/06/01 00:57:55;;;;;;;17.40;5.85;;;;;;;;;;4955637;29;20090;-93
2023/06/01 01:00:40;;;;;;;16.80;5.65;;;;;;;;;;4927988;29;20559;-94
2023/06/01 01:03:25;;;;;;;13.40;4.85;;;;;;;;;;4955672;28;20042;-94
2023/06/01 01:06:22;;;;;;;14.00;5.00;;;;;;;;;;4943947;29;20504;-94
2023/06/01 01:09:36;;;;;;;14.00;5.15;;;11.30;99.90;;;;;;4955164;29;20039;-93
2023/06/01 01:12:21;;;;;;;10.00;4.90;;;;;;;;;;4955581;29;20086;-94
2023/06/01 01:15:12;;;;;;;13.13;5.22;;;;;;;;;;4954927;29;20348;-93
2023/06/01 01:18:01;;;;;;;12.57;4.38;;;;;;;;;;4962158;28;20085;-93
2023/06/01 01:20:52;;;;;;;16.48;5.47;;;;;;;;;;4944383;29;20046;-92
2023/06/01 01:23:37;;;;;;;13.13;4.65;;;;;;;;;;4955372;29;20050;-93
2023/06/01 01:26:47;;;;;;;18.42;5.55;;;11.40;99.90;;;;;;4955000;28;20155;-93
2023/06/01 01:29:32;;;;;;;14.90;5.40;;;;;;;;;;4940871;28;20085;-93
2023/06/01 01:32:17;;;;;;;21.65;5.40;;;;;;;;;;4949709;29;20062;-93
2023/06/01 01:35:02;;;;;;;13.27;5.25;;;;;;;;;;4928088;29;20086;-93
2023/06/01 01:37:51;;;;;;;10.18;4.57;;;11.40;99.90;;;;;;4955153;29;20050;-94
2023/06/01 01:40:36;;;;;;;14.85;4.72;;;;;;;;;;4955007;29;20070;-93
2023/06/01 01:43:22;;;;;;;16.10;5.38;;;;;;;;;;4940031;29;20067;-94
2023/06/01 01:46:25;;;;;;;13.07;5.15;;;;;;;;;;4954389;29;20109;-95
2023/06/01 01:49:17;;;;;;;11.73;5.47;;;;;;;;;;4948947;28;20081;-92
2023/06/01 01:52:25;;;;;;;16.25;6.68;;;11.50;99.90;;;;;;4954333;29;20406;-93
2023/06/01 01:55:10;;;;;;;14.48;5.57;;;;;;;;;;4954551;29;20475;-93
2023/06/01 01:57:56;;;;;;;10.95;4.57;;;11.40;99.90;;;;;;4940423;29;20093;-95
2023/06/01 02:00:41;;;;;;;15.23;5.32;;;;;;;;;;4954501;29;20046;-95
2023/06/01 02:03:26;;;;;;;12.85;4.85;;;;;;;;;;4954139;28;20042;-93
2023/06/01 02:06:11;;;;;;;13.60;4.97;;;;;;;;;;4953750;28;20082;-93
2023/06/01 02:08:55;;;;;;;14.05;4.70;;;;;;;;;;4954720;28;20093;-94
2023/06/01 02:11:40;;;;;;;12.73;4.80;;;;;;;;;;4940385;29;20452;-94
2023/06/01 02:14:24;;;;;;;15.38;5.50;;;;;;;;;;4954372;29;20094;-93
2023/06/01 02:17:09;;;;;;;14.55;6.13;;;;;;;;;;4927064;29;20562;-94
2023/06/01 02:19:53;;;;;;;14.50;6.10;;;;;;;;;;4926588;28;20045;-93
2023/06/01 02:22:38;;;;;;;13.73;5.85;;;;;;;;;;4954464;29;20090;-94
2023/06/01 02:25:23;;;;;;;14.07;5.38;;;;;;;;;;4953784;28;20101;-93
2023/06/01 02:28:07;;;;;;;12.38;5.55;;;;;;;;;;4953959;29;20043;-93
2023/06/01 02:30:52;;;;;;;12.65;5.20;;;;;;;;;;4932022;29;20038;-93
2023/06/01 02:33:36;;;;;;;16.85;5.93;;;;;;;;;;4954283;29;20082;-93
2023/06/01 02:36:21;;;;;;;16.33;5.38;;;;;;;;;;4953823;28;20408;-92
2023/06/01 02:39:06;;;;;;;12.55;4.90;;;;;;;;;;4958238;29;20097;-93
2023/06/01 02:41:50;;;;;;;14.43;5.25;;;;;;;;;;4944188;29;20089;-92
2023/06/01 02:44:35;;;;;;;13.38;5.57;;;;;;;;;;4944088;29;20078;-92
2023/06/01 02:47:20;;;;;;;14.07;5.22;;;;;;;;;;4942886;29;20102;-93
2023/06/01 02:50:05;;;;;;;12.15;5.15;;;;;;;;;;4943663;29;20400;-93
2023/06/01 02:52:49;;;;;;;14.57;5.68;;;;;;;;;;4943620;29;20491;-92
2023/06/01 02:55:34;;;;;;;11.30;5.22;;;;;;;;;;4943546;29;20075;-93
2023/06/01 02:58:18;;;;;;;12.88;4.78;;;;;;;;;;4943277;29;20109;-93
2023/06/01 03:01:03;;;;;;;9.65;4.82;;;;;;;;;;4957801;28;20050;-92
2023/06/01 03:03:48;;;;;;;9.15;4.68;;;;;;;;;;4957845;29;20066;-92
2023/06/01 03:06:37;;;;;;;9.02;4.80;;;;;;;;;;4943199;29;20086;-94
2023/06/01 03:09:21;;;;;;;13.07;4.65;;;;;;;;;;4943035;29;20423;-93
2023/06/01 03:12:06;;;;;;;9.43;4.00;;;;;;;;;;4957963;28;20045;-92
2023/06/01 03:14:50;;;;;;;10.35;4.28;;;;;;;;;;4929948;28;20050;-93
2023/06/01 03:17:35;;;;;;;10.55;3.40;;;;;;;;;;4942871;29;20121;-93
2023/06/01 03:20:20;;;;;;;12.77;4.55;;;;;;;;;;4931256;29;20038;-93
2023/06/01 03:23:04;;;;;;;9.93;4.05;;;;;;;;;;4943609;28;20047;-92
2023/06/01 03:25:49;;;;;;;8.70;3.30;;;;;;;;;;4960532;29;20055;-93
2023/06/01 03:28:34;;;;;;;10.68;4.50;;;;;;;;;;4976291;28;20041;-93
2023/06/01 03:31:19;;;;;;;7.78;4.22;;;;;;;;;;4979021;28;20043;-92
2023/06/01 03:34:04;;;;;;;13.15;3.97;;;;;;;;;;4950113;28;20070;-94
2023/06/01 03:36:49;;;;;;;9.65;4.65;;;;;;;;;;4963485;29;20038;-92
2023/06/01 03:39:35;;;;;;;11.35;4.28;;;;;;;;;;4958684;29;20042;-92
2023/06/01 03:42:20;;;;;;;7.70;4.00;;;;;;;;;;4961354;28;20046;-92
2023/06/01 03:45:05;;;;;;;14.68;4.50;;;11.70;99.90;;;;;;4944580;29;20055;-91
2023/06/01 03:47:50;;;;;;;10.35;3.90;;;;;;;;;;4943085;28;20412;-93
2023/06/01 03:50:35;;;;;;;12.68;4.18;;;;;;;;;;4942579;29;20090;-91
2023/06/01 03:53:20;;;;;;;13.15;5.00;;;;;;;;;;4942437;29;20448;-92
2023/06/01 03:56:05;;;;;;;13.57;4.70;;;;;;;;;;4957525;28;20079;-92
2023/06/01 03:58:50;;;;;;;13.60;4.53;;;;;;;;;;4942953;29;20073;-91
2023/06/01 04:01:36;;;;;;;11.52;3.97;;;;;;;;;;4942449;29;20054;-91
2023/06/01 04:04:26;;;;;;;11.57;5.20;;;11.40;99.90;;;;;;4956759;29;20042;-92
2023/06/01 04:07:21;;;;;;;12.13;4.53;;;;;;;;;;4956853;28;20050;-94
2023/06/01 04:10:06;;;;;;;12.65;4.47;;;;;;;;;;4942454;29;20110;-91
2023/06/01 04:12:51;;;;;;;10.45;4.57;;;;;;;;;;4942210;28;20119;-91
2023/06/01 04:15:36;;;;;;;18.17;4.65;;;;;;;;;;4956366;28;20093;-92
2023/06/01 04:18:21;;;;;;;13.10;4.80;;;;;;;;;;4941609;29;20112;-90
2023/06/01 04:21:06;;;;;;;15.38;4.60;;;;;;;;;;4956810;29;20061;-92
2023/06/01 04:23:51;;;;;;;16.83;4.68;;;;;;;;;;4956374;28;20045;-92
2023/06/01 04:26:36;;;;;;;11.32;5.22;;;;;;;;;;4958904;28;20054;-92
2023/06/01 04:29:21;;;;;;;16.40;4.68;;;;;;;;;;4949332;29;20102;-93
2023/06/01 04:32:06;;;;;;;12.40;5.13;;;;;;;;;;4941596;29;20498;-92
2023/06/01 04:34:51;;;;;;;12.10;5.00;;;;;;;;;;4941952;28;20067;-92
2023/06/01 04:37:40;;;;;;;12.18;5.13;;;11.50;99.90;;;;;;4941319;29;20042;-92
2023/06/01 04:40:26;;;;;;;12.02;5.18;;;;;;;;;;4955733;29;20050;-92
2023/06/01 04:43:11;;;;;;;17.00;5.18;;;;;;;;;;4956054;29;20412;-93
2023/06/01 04:45:57;;;;;;;12.98;5.00;;;;;;;;;;4955684;28;20574;-94
2023/06/01 04:48:44;;;;;;;16.30;6.40;;;;;;;;;;4928097;29;20081;-92
2023/06/01 04:51:30;;;;;;;12.07;5.20;;;;;;;;;;4933839;29;20090;-92
2023/06/01 04:54:18;;;;;;;11.93;5.53;;;;;;;;;;4953210;29;20710;-92
2023/06/01 04:57:06;;;;;;;11.45;5.05;;;;;;;;;;4956050;29;20046;-92
2023/06/01 04:59:51;;;;;;;19.85;6.68;;;;;;;;;;4946090;28;20407;-93
2023/06/01 05:02:36;;;;;;;13.65;5.45;;;;;;;;;;4966613;28;20042;-92
2023/06/01 05:05:21;;;;;;;19.50;6.15;;;;;;;;;;4954672;29;20050;-91
2023/06/01 05:08:06;;;;;;;15.48;5.88;;;;;;;;;;4955739;28;20539;-92
2023/06/01 05:10:52;;;;;;;16.08;5.03;;;;;;;;;;4941196;29;20041;-91
2023/06/01 05:13:41;;;;;;;8.38;4.18;;;10.60;99.90;;;;;;4948477;28;20082;-92
2023/06/01 05:16:26;;;;;;;11.18;4.70;;;;;;;;;;4939597;29;20566;-93
2023/06/01 05:19:10;;;;;;;11.85;5.07;;;;;;;;;;4964911;28;20166;-91
2023/06/01 05:21:55;;;;;;;10.05;4.72;;;;;;;;;;4933838;28;20158;-91
2023/06/01 05:24:40;;;;;;;14.57;5.25;;;;;;;;;;4927254;29;20122;-91
2023/06/01 05:27:25;;;;;;;10.23;3.90;;;;;;;;;;4955067;29;20062;-92
2023/06/01 05:30:10;;;;;;;15.70;4.07;;;;;;;;;;4939208;29;20067;-91
2023/06/01 05:32:54;;;;;;;8.25;4.05;;;;;;;;;;4966639;28;20117;-92
2023/06/01 05:35:39;;;;;;;13.18;4.30;;;;;;;;;;4931025;29;20114;-91
2023/06/01 05:38:24;;;;;;;10.63;4.60;;;;;;;;;;4963479;28;20039;-91
2023/06/01 05:41:09;;;;;;;12.82;4.93;;;;;;;;;;4942474;29;20120;-91
2023/06/01 05:43:54;;;;;;;10.77;4.30;;;;;;;;;;4940436;29;20046;-92
2023/06/01 05:46:38;;;;;;;13.93;4.15;;;;;;;;;;4932179;29;20536;-92
2023/06/01 05:49:23;;;;;;;12.40;4.22;;;;;;;;;;4955681;28;20046;-92
2023/06/01 05:52:07;;;;;;;7.55;4.20;;;;;;;;;;4955222;29;20094;-93
2023/06/01 05:54:53;;;;;;;11.50;3.88;;;;;;;;;;4939998;29;20054;-91
2023/06/01 05:57:38;;;;;;;8.02;4.32;;;;;;;;;;4943926;28;20066;-91
2023/06/01 06:00:23;;;;;;;10.63;4.35;;;;;;;;;;4956742;28;20174;-92
2023/06/01 06:03:07;;;;;;;12.23;4.75;;;;;;;;;;4957696;28;20106;-86
2023/06/01 06:05:52;;;;;;;14.75;4.85;;;;;;;;;;4942037;29;20050;-93
2023/06/01 06:08:37;;;;;;;10.52;4.72;;;;;;;;;;4916681;29;20050;-91
2023/06/01 06:11:22;;;;;;;10.82;5.45;;;;;;;;;;4923832;29;20122;-93
2023/06/01 06:14:07;;;;;;;19.02;5.00;;;;;;;;;;4946710;28;20113;-93
2023/06/01 06:16:51;;;;;;;8.23;4.60;;;;;;;;;;4951938;29;20093;-92
2023/06/01 06:19:36;;;;;;;11.05;5.57;;;;;;;;;;4954043;29;20054;-90
2023/06/01 06:22:21;;;;;;;10.77;5.45;;;;;;;;;;4939888;29;20499;-93
2023/06/01 06:25:06;;;;;;;15.82;5.22;;;;;;;;;;4940056;29;20054;-95
2023/06/01 06:27:50;;;;;;;14.43;5.90;;;;;;;;;;4944974;28;20050;-92
2023/06/01 06:30:35;;;;;;;11.80;5.05;;;;;;;;;;4926439;29;20491;-95
2023/06/01 06:33:19;;;;;;;12.73;4.97;;;;;;;;;;4926381;29;20442;-93
2023/06/01 06:36:04;;;;;;;12.02;4.55;;;;;;;;;;4954116;29;20079;-93
2023/06/01 06:38:49;;;;;;;11.68;5.15;;;;;;;;;;4925876;29;20054;-91
2023/06/01 06:41:33;;;;;;;13.13;5.18;;;;;;;;;;4926614;29;20062;-92
2023/06/01 06:44:17;;;;;;;14.00;4.95;;;;;;;;;;4940158;28;20396;-92
2023/06/01 06:47:02;;;;;;;9.95;4.80;;;;;;;;;;4939725;29;20127;-92
2023/06/01 06:49:47;;;;;;;11.20;4.28;;;;;;;;;;4953957;29;20106;-92
2023/06/01 06:52:32;;;;;;;10.07;3.78;;;;;;;;;;4939166;28;20603;-92
2023/06/01 06:55:17;;;;;;;13.73;4.07;;;;;;;;;;4940016;29;20174;-92
2023/06/01 06:58:02;;;;;;;10.52;4.10;;;;;;;;;;4969412;28;20077;-92
2023/06/01 07:00:47;;;;;;;8.55;3.58;;;;;;;;;;4935655;28;20111;-93
2023/06/01 07:03:32;;;;;;;6.47;2.88;;;;;;;;;;4938567;28;20042;-93
2023/06/01 07:06:16;;;;;;;5.50;2.47;;;;;;;;;;4926137;29;20051;-93
2023/06/01 07:09:01;;;;;;;9.73;2.67;;;;;;;;;;4946557;28;20042;-92
2023/06/01 07:11:47;;;;;;;7.57;2.72;;;;;;;;;;4945946;28;20101;-92
2023/06/01 07:14:32;;;;;;;9.00;3.17;;;;;;;;;;4937178;28;20042;-93
2023/06/01 07:17:16;;;;;;;6.78;2.58;;;;;;;;;;4965150;28;20093;-92
2023/06/01 07:20:01;;;;;;;4.95;2.70;;;;;;;;;;4925869;29;20074;-93
2023/06/01 07:22:45;;;;;;;9.02;2.90;;;;;;;;;;4962082;28;20074;-92
2023/06/01 07:25:30;;;;;;;7.75;2.80;;;;;;;;;;4957708;29;20098;-93
2023/06/01 07:28:17;;;;;;;6.15;2.80;;;;;;;;;;4948378;29;20038;-92
2023/06/01 07:31:01;;;;;;;9.40;3.00;;;;;;;;;;4942434;29;20042;-92
2023/06/01 07:33:46;;;;;;;5.97;2.65;;;;;;;;;;4962980;28;20053;-93
2023/06/01 07:36:36;;;;;;;6.80;2.85;;;;;;;;;;4952243;29;20050;-93
2023/06/01 07:39:21;;;;;;;8.50;2.50;;;;;;;;;;4943744;29;20035;-93
2023/06/01 07:42:05;;;;;;;7.45;2.70;;;;;;;;;;4936601;29;20476;-92
2023/06/01 07:44:53;;;;;;;7.78;2.92;;;;;;;;;;4923209;29;20043;-93
2023/06/01 07:47:38;;;;;;;6.25;2.63;;;;;;;;;;4951456;29;20123;-93
2023/06/01 07:50:28;;;;;;;4.45;2.28;;;;;;;;;;4923490;29;20648;-92
2023/06/01 07:53:13;;;;;;;5.18;2.50;;;;;;;;;;4936812;29;20046;-92
2023/06/01 07:55:58;;;;;;;5.50;2.25;;;;;;;;;;4922797;29;20178;-91
2023/06/01 07:58:44;;;;;;;5.03;2.28;;;;;;;;;;4938095;29;20039;-91
2023/06/01 08:01:28;;;;;;;6.00;2.88;;;;;;;;;;4937831;29;20042;-92
2023/06/01 08:04:14;;;;;;;7.13;2.67;;;;;;;;;;4923378;29;20063;-92
2023/06/01 08:06:58;;;;;;;5.85;2.60;;;;;;;;;;4922546;29;20050;-93
2023/06/01 08:09:43;;;;;;;5.55;2.60;;;;;;;;;;4937630;29;20038;-92
2023/06/01 08:12:27;;;;;;;7.13;2.35;;;;;;;;;;4937469;29;20042;-92
2023/06/01 08:15:12;;;;;;;5.68;2.53;;;;;;;;;;4922790;29;20067;-93
2023/06/01 08:17:57;;;;;;;5.38;2.20;;;;;;;;;;4936181;29;20109;-92
2023/06/01 08:20:43;;;;;;;7.32;2.67;;;;;;;;;;4935976;29;20054;-91
2023/06/01 08:23:28;;;;;;;6.25;2.50;;;;;;;;;;4922373;29;20138;-92
2023/06/01 08:26:12;;;;;;;6.65;2.65;;;;;;;;;;4922129;29;20507;-93
2023/06/01 08:28:57;;;;;;;8.55;2.72;;;;;;;;;;4936472;29;20439;-93
2023/06/01 08:31:41;;;;;;;5.25;2.13;;;;;;;;;;4936770;29;20042;-91
2023/06/01 08:34:26;;;;;;;7.07;2.83;;;;;;;;;;4921277;29;20061;-91
2023/06/01 08:37:10;;;;;;;7.55;2.20;;;;;;;;;;4922241;29;20087;-92
2023/06/01 08:39:55;;;;;;;7.15;2.50;;;;;;;;;;4924681;29;20117;-92
2023/06/01 08:42:47;;;;;;;6.28;2.38;;;;;;;;;;4955999;29;20090;-92
2023/06/01 08:45:32;;;;;;;8.60;2.60;;;;;;;;;;4955945;29;20094;-91
2023/06/01 08:48:19;;;;;;;6.22;2.40;;;12.90;99.90;;;;;;4941082;28;20049;-94
2023/06/01 08:51:03;;;;;;;5.28;2.50;;;;;;;;;;4941527;29;20068;-95
2023/06/01 08:53:50;;;;;;;5.38;2.83;;;12.90;99.90;;;;;;4941527;29;20074;-94
2023/06/01 08:56:34;;;;;;;3.95;2.25;;;;;;;;;;4955632;28;20067;-92
2023/06/01 08:59:19;;;;;;;4.00;2.28;;;;;;;;;;4940826;29;20041;-91
2023/06/01 09:02:04;;;;;;;7.50;2.50;;;;;;;;;;4927085;28;20038;-93
2023/06/01 09:04:48;;;;;;;6.57;2.90;;;;;;;;;;4955331;28;20038;-92
2023/06/01 09:07:34;;;;;;;6.80;2.60;;;;;;;;;;4940772;29;20049;-91
2023/06/01 09:10:25;;;;;;;7.10;3.08;;;12.90;99.90;;;;;;4954661;28;20535;-92
2023/06/01 09:13:09;;;;;;;6.72;2.65;;;;;;;;;;4954846;29;20038;-93
2023/06/01 09:15:54;;;;;;;8.55;3.13;;;;;;;;;;4955162;28;20046;-92
2023/06/01 09:18:54;;;;;;;6.10;2.53;;;13.30;99.90;;;;;;4940683;28;20086;-93
2023/06/01 09:21:38;;;;;;;6.43;2.95;;;;;;;;;;4941047;29;20046;-92
2023/06/01 09:24:23;;;;;;;7.63;3.25;;;;;;;;;;4941097;29;20408;-92
2023/06/01 09:27:08;;;;;;;15.18;4.15;;;;;;;;;;4955179;29;20120;-92
2023/06/01 09:29:56;;;;;;;9.02;3.50;;;;;;;;;;4941213;29;20058;-92
2023/06/01 09:32:41;;;;;;;7.68;3.85;;;;;;;;;;4940884;29;20034;-91
2023/06/01 09:35:46;;;;;;;17.85;4.32;;;13.10;99.90;;;;;;4955568;29;20086;-92
2023/06/01 09:38:33;;;;;;;9.68;4.88;;;;;;;;;;4945793;29;20114;-91
2023/06/01 09:41:20;;;;;;;9.13;3.63;;;;;;;;;;4940853;29;20121;-91
2023/06/01 09:44:05;;;;;;;10.02;3.15;;;13.00;99.90;;;;;;4940370;28;20046;-91
2023/06/01 09:47:01;;;;;;;12.80;3.70;;;13.00;99.90;;;;;;4940610;29;20050;-91
2023/06/01 09:49:46;;;;;;;6.82;3.05;;;;;;;;;;4928912;29;20058;-91
2023/06/01 09:52:30;;;;;;;8.15;3.13;;;;;;;;;;4940227;29;20038;-92
2023/06/01 09:55:15;;;;;;;10.52;3.05;;;;;;;;;;4940243;29;20118;-91
2023/06/01 09:58:23;;;;;;;11.82;2.90;;;13.30;99.90;;;;;;4914310;29;20404;-92
2023/06/01 10:01:08;;;;;;;13.15;3.28;;;;;;;;;;4944654;28;20059;-93
2023/06/01 10:03:56;;;;;;;13.98;3.63;;;13.50;99.90;;;;;;4949997;29;20046;-91
2023/06/01 10:06:41;;;;;;;9.95;3.03;;;;;;;;;;4923364;29;20094;-91
2023/06/01 10:09:26;;;;;;;8.55;2.72;;;;;;;;;;4943052;28;20062;-92
2023/06/01 10:12:11;;;;;;;12.57;3.70;;;;;;;;;;4947992;29;20045;-93
2023/06/01 10:14:57;;;;;;;6.03;2.67;;;;;;;;;;4947603;28;20038;-91
2023/06/01 10:17:43;;;;;;;11.73;2.42;;;;;;;;;;4940012;29;20391;-95
2023/06/01 10:20:30;;;;;;;11.05;2.90;;;;;;;;;;4949205;28;20082;-95
2023/06/01 10:23:15;;;;;;;10.13;2.97;;;;;;;;;;4964062;28;20097;-92
2023/06/01 10:26:06;;;;;;;12.60;4.20;;;;;;;;;;4956106;28;20053;-92
2023/06/01 10:28:51;;;;;;;9.55;2.88;;;;;;;;;;4942664;28;20038;-93
2023/06/01 10:31:36;;;;;;;8.20;2.78;;;13.80;99.90;;;;;;4954091;28;20081;-93
2023/06/01 10:34:37;;;;;;;8.80;3.65;;;13.80;99.90;;;;;;4936628;28;20087;-92
2023/06/01 10:37:21;;;;;;;6.13;2.20;;;;;;;;;;4938890;29;20038;-91
2023/06/01 10:40:18;;;;;;;6.90;2.55;;;;;;;;;;4938775;29;20057;-93
2023/06/01 10:43:03;;;;;;;9.40;3.15;;;;;;;;;;4956227;28;20132;-93
2023/06/01 10:45:48;;;;;;;7.53;3.40;;;;;;;;;;4941486;28;20093;-94
2023/06/01 10:49:02;;;;;;;8.20;2.55;;;14.00;99.90;;;;;;4941453;29;20079;-93
2023/06/01 10:51:47;;;;;;;12.07;2.67;;;;;;;;;;4926700;29;20057;-91
2023/06/01 10:54:32;;;;;;;7.20;2.30;;;;;;;;;;4953123;29;20038;-92
2023/06/01 10:57:26;;;;;;;9.18;2.25;;;;;;;;;;4954168;28;20372;-92
2023/06/01 11:00:12;;;;;;;9.93;3.50;;;;;;;;;;4956015;29;20054;-93
2023/06/01 11:02:59;;;;;;;7.93;3.10;;;;;;;;;;4955294;29;20039;-91
2023/06/01 11:05:48;;;;;;;9.40;3.63;;;;;;;;;;4968282;28;20046;-91
2023/06/01 11:08:35;;;;;;;6.90;2.70;;;;;;;;;;4965325;28;20041;-93
2023/06/01 11:11:20;;;;;;;9.05;2.35;;;;;;;;;;4943204;28;20073;-93
2023/06/01 11:14:12;;;;;;;6.50;2.72;;;;;;;;;;4958613;28;20056;-92
2023/06/01 11:17:29;;;;;;;9.68;3.72;;;14.60;99.90;;;;;;4933675;29;20162;-94
2023/06/01 11:20:15;;;;;;;11.43;2.83;;;14.70;99.90;;;;;;4953415;28;20042;-95
2023/06/01 11:23:01;;;;;;;7.82;2.47;;;;;;;;;;4943994;29;20035;-92
2023/06/01 11:25:46;;;;;;;8.63;2.75;;;;;;;;;;4952394;28;20377;-93
2023/06/01 11:28:31;;;;;;;11.10;2.53;;;;;;;;;;4951460;29;20114;-92
2023/06/01 11:31:16;;;;;;;8.20;3.00;;;;;;;;;;4956657;29;20042;-91
2023/06/01 11:34:02;;;;;;;11.48;3.08;;;;;;;;;;4942595;29;20054;-91
2023/06/01 11:36:48;;;;;;;13.60;3.63;;;;;;;;;;4953219;28;20082;-93
2023/06/01 11:39:33;;;;;;;6.28;2.50;;;;;;;;;;4960122;28;20491;-92
2023/06/01 11:42:19;;;;;;;8.80;3.40;;;;;;;;;;4956080;29;20082;-93
2023/06/01 11:45:04;;;;;;;14.45;3.72;;;;;;;;;;4956944;29;20042;-92
2023/06/01 11:47:49;;;;;;;12.10;3.42;;;;;;;;;;4942615;29;20060;-92
2023/06/01 11:50:34;;;;;;;6.13;2.47;;;;;;;;;;4956000;29;20050;-93
2023/06/01 11:53:19;;;;;;;8.93;2.72;;;;;;;;;;4956234;29;20093;-93
2023/06/01 11:56:04;;;;;;;9.38;2.95;;;;;;;;;;4942451;29;20070;-94
2023/06/01 11:58:49;;;;;;;12.70;3.30;;;;;;;;;;4956433;29;20100;-93
2023/06/01 12:01:33;;;;;;;7.55;2.80;;;;;;;;;;4915885;29;20119;-94
2023/06/01 12:04:21;;;;;;;7.78;2.78;;;;;;;;;;4955921;29;20046;-95
2023/06/01 12:07:07;;;;;;;7.07;2.50;;;;;;;;;;4956375;29;20054;-92
2023/06/01 12:09:56;;;;;;;10.93;2.60;;;;;;;;;;4955095;28;20074;-92
2023/06/01 12:12:43;;;;;;;7.47;2.40;;;;;;;;;;4941320;29;20042;-93
2023/06/01 12:15:28;;;;;;;8.90;2.65;;;;;;;;;;4941210;29;20094;-93
2023/06/01 12:18:13;;;;;;;8.98;3.38;;;;;;;;;;4941625;29;20034;-93
2023/06/01 12:20:57;;;;;;;10.57;2.80;;;;;;;;;;4956314;29;20070;-93
2023/06/01 12:23:42;;;;;;;8.43;4.10;;;;;;;;;;4943307;29;20047;-92
2023/06/01 12:26:35;;;;;;;8.00;3.72;;;;;;;;;;4941103;29;20411;-92
2023/06/01 12:29:41;;;;;;;11.25;3.47;;;15.20;99.90;;;;;;4941390;29;20038;-92
2023/06/01 12:32:37;;;;;;;7.65;2.83;;;;;;;;;;4930838;29;20038;-93
2023/06/01 12:35:23;;;;;;;7.72;2.90;;;;;;;;;;4941115;29;20550;-91
2023/06/01 12:38:11;;;;;;;8.77;3.40;;;;;;;;;;4941588;29;20125;-92
2023/06/01 12:41:13;;;;;;;9.27;3.20;;;;;;;;;;4940083;28;20424;-93
2023/06/01 12:43:58;;;;;;;5.88;2.90;;;;;;;;;;4941025;28;20046;-93
2023/06/01 12:46:43;;;;;;;9.35;3.38;;;;;;;;;;4955223;29;20939;-92
2023/06/01 12:49:28;;;;;;;8.57;2.90;;;;;;;;;;4939079;29;20086;-92
2023/06/01 12:52:12;;;;;;;8.80;2.72;;;;;;;;;;4941160;29;20108;-92
2023/06/01 12:54:57;;;;;;;4.93;2.50;;;;;;;;;;4944533;28;20412;-92
2023/06/01 12:57:43;;;;;;;8.23;4.07;;;;;;;;;;4940635;29;20049;-92
2023/06/01 13:00:28;;;;;;;9.02;2.90;;;;;;;;;;4940485;29;20046;-92
2023/06/01 13:03:13;;;;;;;8.00;3.05;;;;;;;;;;4942221;29;20038;-93
2023/06/01 13:05:57;;;;;;;7.68;3.22;;;14.80;99.90;;;;;;4940672;28;20063;-94
2023/06/01 13:08:42;;;;;;;6.90;2.75;;;;;;;;;;4940371;29;20046;-94
2023/06/01 13:11:26;;;;;;;9.90;3.55;;;;;;;;;;4939927;28;20086;-93
2023/06/01 13:14:11;;;;;;;7.93;2.65;;;;;;;;;;4955250;29;20038;-93
2023/06/01 13:16:56;;;;;;;8.23;3.03;;;;;;;;;;4942952;29;20554;-92
2023/06/01 13:19:41;;;;;;;7.20;3.75;;;;;;;;;;4954364;28;20042;-92
2023/06/01 13:22:26;;;;;;;8.88;2.95;;;;;;;;;;4954502;28;20055;-93
2023/06/01 13:25:11;;;;;;;8.30;3.20;;;;;;;;;;4940141;28;20511;-92
2023/06/01 13:27:56;;;;;;;6.63;3.08;;;;;;;;;;4927002;29;20062;-94
2023/06/01 13:30:41;;;;;;;8.05;2.95;;;;;;;;;;4954376;29;20070;-90
2023/06/01 13:33:26;;;;;;;11.38;2.90;;;;;;;;;;4954675;28;20042;-93
2023/06/01 13:36:11;;;;;;;8.18;2.45;;;;;;;;;;4954929;28;20086;-93
2023/06/01 13:38:56;;;;;;;8.10;2.78;;;;;;;;;;4941644;28;20046;-94
2023/06/01 13:41:41;;;;;;;5.70;2.55;;;;;;;;;;4940066;29;20586;-93
2023/06/01 13:44:26;;;;;;;7.80;3.00;;;;;;;;;;4940104;28;20102;-93
2023/06/01 13:47:11;;;;;;;10.23;3.42;;;;;;;;;;4954552;28;20802;-94
2023/06/01 13:49:55;;;;;;;10.43;4.18;;;;;;;;;;4954879;29;20046;-93
2023/06/01 13:52:41;;;;;;;11.65;3.17;;;;;;;;;;4939555;29;20042;-94
2023/06/01 13:55:26;;;;;;;7.05;2.75;;;;;;;;;;4940057;29;20042;-92
2023/06/01 13:58:10;;;;;;;9.10;2.67;;;;;;;;;;4942014;29;20035;-92
2023/06/01 14:00:57;;;;;;;6.63;3.00;;;;;;;;;;4953940;28;20042;-94
2023/06/01 14:03:42;;;;;;;6.75;3.45;;;;;;;;;;4953851;28;20510;-92
2023/06/01 14:06:27;;;;;;;7.60;3.45;;;;;;;;;;4925946;28;20514;-92
2023/06/01 14:09:11;;;;;;;11.05;3.40;;;;;;;;;;4926800;29;20439;-92
2023/06/01 14:11:56;;;;;;;12.57;3.92;;;;;;;;;;4920796;29;20415;-92
2023/06/01 14:14:41;;;;;;;12.93;3.90;;;;;;;;;;4950710;29;20075;-94
2023/06/01 14:17:25;;;;;;;10.90;3.78;;;;;;;;;;4940070;29;20042;-93
2023/06/01 14:20:10;;;;;;;9.02;3.40;;;;;;;;;;4939899;29;20046;-93
2023/06/01 14:22:55;;;;;;;8.65;3.20;;;;;;;;;;4939255;29;20054;-94
2023/06/01 14:25:40;;;;;;;8.05;2.63;;;;;;;;;;4939172;29;20098;-94
2023/06/01 14:28:25;;;;;;;8.18;3.00;;;;;;;;;;4954151;28;20547;-93
2023/06/01 14:31:10;;;;;;;10.38;3.17;;;;;;;;;;4954170;28;20503;-92
2023/06/01 14:33:55;;;;;;;7.85;2.97;;;;;;;;;;4952900;28;20046;-94
2023/06/01 14:36:40;;;;;;;9.70;3.13;;;14.50;99.90;;;;;;4938763;28;20399;-93
2023/06/01 14:39:25;;;;;;;6.32;2.70;;;;;;;;;;4954194;29;20042;-92
2023/06/01 14:42:10;;;;;;;8.02;3.22;;;;;;;;;;4939649;28;20117;-93
2023/06/01 14:44:54;;;;;;;12.95;3.13;;;;;;;;;;4939577;29;20655;-94
2023/06/01 14:47:42;;;;;;;10.68;3.03;;;;;;;;;;4938730;29;20077;-92
2023/06/01 14:50:27;;;;;;;10.30;3.13;;;;;;;;;;4953897;29;20078;-93
2023/06/01 14:53:12;;;;;;;8.82;3.05;;;;;;;;;;4942413;28;20046;-93
2023/06/01 14:55:56;;;;;;;11.00;3.70;;;;;;;;;;4925428;28;20046;-93
2023/06/01 14:58:41;;;;;;;7.47;3.05;;;;;;;;;;4938897;29;20047;-92
2023/06/01 15:01:25;;;;;;;7.10;2.60;;;;;;;;;;4953928;28;20042;-93
2023/06/01 15:04:10;;;;;;;6.35;2.97;;;;;;;;;;4939472;28;20061;-93
2023/06/01 15:06:54;;;;;;;9.43;2.63;;;;;;;;;;4939198;29;20098;-93
2023/06/01 15:09:39;;;;;;;8.90;2.35;;;;;;;;;;4938647;29;20034;-92
2023/06/01 15:12:23;;;;;;;6.22;2.20;;;;;;;;;;4953747;29;20034;-94
2023/06/01 15:15:12;;;;;;;9.57;2.60;;;;;;;;;;4940982;28;20585;-92
2023/06/01 15:17:57;;;;;;;8.63;2.50;;;;;;;;;;4938367;28;20047;-93
2023/06/01 15:20:43;;;;;;;7.65;2.60;;;;;;;;;;4938461;29;20094;-94
2023/06/01 15:23:28;;;;;;;5.50;2.42;;;;;;;;;;4935012;29;20094;-93
2023/06/01 15:26:12;;;;;;;9.07;2.03;;;;;;;;;;4962770;28;20050;-91
2023/06/01 15:28:56;;;;;;;6.03;2.75;;;;;;;;;;4941332;28;20119;-94
2023/06/01 15:31:41;;;;;;;9.32;2.65;;;;;;;;;;4949320;28;20050;-93
2023/06/01 15:34:25;;;;;;;7.35;2.40;;;;;;;;;;4939401;29;20112;-93
2023/06/01 15:37:11;;;;;;;8.48;2.50;;;14.20;99.90;;;;;;4931156;29;20054;-94
2023/06/01 15:39:55;;;;;;;12.25;2.60;;;;;;;;;;4952865;29;20042;-92
2023/06/01 15:42:40;;;;;;;7.38;2.63;;;;;;;;;;4938867;28;20094;-94
2023/06/01 15:45:25;;;;;;;6.53;2.53;;;;;;;;;;4956618;28;20078;-93
2023/06/01 15:48:10;;;;;;;8.48;2.50;;;;;;;;;;4918739;29;20124;-93
2023/06/01 15:50:54;;;;;;;4.35;1.98;;;;;;;;;;4957151;28;20395;-92
2023/06/01 15:53:39;;;;;;;7.38;2.78;;;;;;;;;;4942508;29;20126;-93
2023/06/01 15:56:23;;;;;;;7.40;2.55;;;;;;;;;;4942085;29;20503;-92
2023/06/01 15:59:08;;;;;;;6.60;2.53;;;;;;;;;;4956660;28;20097;-94
2023/06/01 16:01:53;;;;;;;7.18;2.03;;;;;;;;;;4946133;29;20047;-93
2023/06/01 16:04:38;;;;;;;7.22;2.05;;;;;;;;;;4956277;29;20041;-93
2023/06/01 16:07:22;;;;;;;5.63;1.70;;;;;;;;;;4959096;28;20046;-94
2023/06/01 16:10:08;;;;;;;6.93;1.75;;;;;;;;;;4958813;28;20050;-94
2023/06/01 16:12:53;;;;;;;7.68;1.80;;;;;;;;;;4943761;28;20849;-94
2023/06/01 16:15:38;;;;;;;7.22;1.98;;;;;;;;;;4947655;29;20054;-93